Westford, VT (05494)

3:18 PM EDT on October 23, 2014 (GMT -0400)
Huntley Rd. | Change Station
CLOSE
Current Station
Personal Weather Station
Location: Westford, VT
Elevation: 518 ft
Nearby Weather Stations

Elev 518 ft 44.63 °N, 73.00 °W | Updated 5 seconds ago

Rain
Rain
45.5 °F
Feels Like 46 °F
N
0.0
Wind Variable Wind from NE
Gusts 0.0 mph

Today
High -- | Low -- °F
--% Chance of Precip.
Yesterday
High -- | Low -- °F
Precip. -- in
7:17 AM 5:54 PM
Waning Crescent, 0% visible
Pressure 29.92 in
Visibility 3.0 miles
Clouds Mostly Cloudy 700 ft
Overcast 1100 ft
Windchill 46 °F
Dew Point 42 °F
Humidity 86%
Rainfall 0.00 in
Snow Depth Not available.
UV 1 out of 12
Pollen .10 out of 12
Ozone Good
PM2.5 Good
Flu Activity Sporadic
METAR KBTV 231854Z 35015G21KT 3SM -RA BR BKN007 OVC011 07/06 A2991 RMK AO2 SLP131 P0017 T00720056

More Conditions Fewer Conditions

Pressure 29.92 in
Visibility 3.0 miles
Clouds Mostly Cloudy 700 ft
Overcast 1100 ft
Windchill 46 °F
Dew Point 42 °F
Humidity 86%
Rainfall 0.00 in
Snow Depth Not available.
UV 1 out of 12
Pollen .10 out of 12
Ozone Good
PM2.5 Good
Flu Activity Sporadic
METAR KBTV 231854Z 35015G21KT 3SM -RA BR BKN007 OVC011 07/06 A2991 RMK AO2 SLP131 P0017 T00720056

More Conditions Fewer Conditions

10-Day Weather Forecast

Almanac

Astronomy

Oct. 23, 2014 Rise Set
Actual Time 7:17 AM EDT 5:54 PM EDT
Civil Twilight 6:47 AM EDT 6:24 PM EDT
Nautical Twilight 6:13 AM EDT 6:58 PM EDT
Astronomical Twilight 5:40 AM EDT 7:31 PM EDT
Moon 6:53 AM EDT 5:54 PM EDT
Length of Visible Light 11h 36m
Length of Day
10h 36m
Tomorrow will be 2m 53s shorter.
Waning Crescent, 0% of the Moon is Illuminated
Today
Waning Crescent
Oct 23
New
Oct 30
First Quarter
Nov 6
Full
Nov 14
Last Quarter

Today's Extremes

State Highs State Lows

Community

WunderPhotos

Upload Photos

1,764,346 photos uploaded!

WunderBlogs® & News

By Dr. Jeff Masters
Director of Meteorology, Weather Underground
By Kari Strenfel
Meteorologist, Weather Underground
By Christopher C. Burt
Weather Historian, Weather Underground
October 23, 2014
October 23, 2014
October 23, 2014

Nearby

Air Quality

  Air Quality AQ Index Pollutant
Yesterday Good
PM2.5
Current Good
OZONE
Current Good
PM2.5
Thursday Good
PM2.5

Snow Depth

Station Depth Elevation
No new snow has been reported.

Earthquake Activity

City Distance Mag. Time & Date
No recent earthquake activity has been reported nearby.
Minimum magnitude displayed is 2.5.

Coastal Water Temperatures

Place Temperature
No Stations Reporting

Nearby Weather Stations